sensor_id;sensor_type;location;lat;lon;timestamp;P1;durP1;ratioP1;P2;durP2;ratioP2
60582;SDS011;46415;47.536;19.066;2022-10-19T00:02:35;12.55;;;8.32;;
60582;SDS011;46415;47.536;19.066;2022-10-19T00:05:38;11.27;;;7.18;;
60582;SDS011;46415;47.536;19.066;2022-10-19T00:08:41;9.95;;;7.28;;
60582;SDS011;46415;47.536;19.066;2022-10-19T00:11:45;18.02;;;8.77;;
60582;SDS011;46415;47.536;19.066;2022-10-19T00:14:49;11.50;;;7.37;;
60582;SDS011;46415;47.536;19.066;2022-10-19T00:17:52;12.43;;;7.50;;
60582;SDS011;46415;47.536;19.066;2022-10-19T00:21:01;11.45;;;7.50;;
60582;SDS011;46415;47.536;19.066;2022-10-19T00:24:07;9.25;;;7.25;;
60582;SDS011;46415;47.536;19.066;2022-10-19T00:27:10;9.82;;;6.15;;
60582;SDS011;46415;47.536;19.066;2022-10-19T00:30:12;13.20;;;8.25;;
60582;SDS011;46415;47.536;19.066;2022-10-19T00:33:15;11.18;;;6.57;;
60582;SDS011;46415;47.536;19.066;2022-10-19T00:36:24;13.90;;;8.73;;
60582;SDS011;46415;47.536;19.066;2022-10-19T00:39:28;14.48;;;8.23;;
60582;SDS011;46415;47.536;19.066;2022-10-19T00:42:31;10.73;;;7.12;;
60582;SDS011;46415;47.536;19.066;2022-10-19T00:45:34;14.95;;;8.90;;
60582;SDS011;46415;47.536;19.066;2022-10-19T00:48:37;13.10;;;9.27;;
60582;SDS011;46415;47.536;19.066;2022-10-19T00:51:45;10.52;;;7.45;;
60582;SDS011;46415;47.536;19.066;2022-10-19T00:54:52;12.75;;;8.65;;
60582;SDS011;46415;47.536;19.066;2022-10-19T00:57:56;14.73;;;8.73;;
60582;SDS011;46415;47.536;19.066;2022-10-19T01:01:00;12.40;;;8.13;;
60582;SDS011;46415;47.536;19.066;2022-10-19T01:04:06;13.43;;;8.30;;
60582;SDS011;46415;47.536;19.066;2022-10-19T01:07:10;13.65;;;7.90;;
60582;SDS011;46415;47.536;19.066;2022-10-19T01:10:14;13.93;;;8.70;;
60582;SDS011;46415;47.536;19.066;2022-10-19T01:31:47;13.45;;;7.68;;
60582;SDS011;46415;47.536;19.066;2022-10-19T01:34:28;11.73;;;8.52;;
60582;SDS011;46415;47.536;19.066;2022-10-19T01:40:55;11.88;;;8.30;;
60582;SDS011;46415;47.536;19.066;2022-10-19T01:44:00;15.50;;;9.27;;
60582;SDS011;46415;47.536;19.066;2022-10-19T01:47:17;13.13;;;9.40;;
60582;SDS011;46415;47.536;19.066;2022-10-19T01:50:48;13.85;;;8.60;;
60582;SDS011;46415;47.536;19.066;2022-10-19T01:53:57;14.77;;;8.43;;
60582;SDS011;46415;47.536;19.066;2022-10-19T01:57:06;14.57;;;8.13;;
60582;SDS011;46415;47.536;19.066;2022-10-19T02:00:14;17.80;;;11.50;;
60582;SDS011;46415;47.536;19.066;2022-10-19T02:03:18;11.55;;;8.18;;
60582;SDS011;46415;47.536;19.066;2022-10-19T02:06:22;11.98;;;9.55;;
60582;SDS011;46415;47.536;19.066;2022-10-19T02:09:25;14.85;;;7.28;;
60582;SDS011;46415;47.536;19.066;2022-10-19T02:12:28;13.85;;;10.18;;
60582;SDS011;46415;47.536;19.066;2022-10-19T02:15:34;9.55;;;7.60;;
60582;SDS011;46415;47.536;19.066;2022-10-19T02:18:41;12.73;;;8.85;;
60582;SDS011;46415;47.536;19.066;2022-10-19T02:21:47;14.45;;;7.65;;
60582;SDS011;46415;47.536;19.066;2022-10-19T02:24:51;16.12;;;9.02;;
60582;SDS011;46415;47.536;19.066;2022-10-19T02:27:54;15.32;;;9.40;;
60582;SDS011;46415;47.536;19.066;2022-10-19T02:30:56;15.13;;;7.37;;
60582;SDS011;46415;47.536;19.066;2022-10-19T02:34:01;9.35;;;7.55;;
60582;SDS011;46415;47.536;19.066;2022-10-19T02:37:04;13.05;;;8.00;;
60582;SDS011;46415;47.536;19.066;2022-10-19T02:40:07;8.73;;;6.68;;
60582;SDS011;46415;47.536;19.066;2022-10-19T02:43:12;10.55;;;7.75;;
60582;SDS011;46415;47.536;19.066;2022-10-19T02:49:45;12.93;;;8.63;;
60582;SDS011;46415;47.536;19.066;2022-10-19T02:52:50;12.07;;;8.55;;
60582;SDS011;46415;47.536;19.066;2022-10-19T02:55:52;12.73;;;8.02;;
60582;SDS011;46415;47.536;19.066;2022-10-19T02:58:55;10.82;;;7.50;;
60582;SDS011;46415;47.536;19.066;2022-10-19T03:01:58;10.55;;;7.22;;
60582;SDS011;46415;47.536;19.066;2022-10-19T03:05:01;10.90;;;7.18;;
60582;SDS011;46415;47.536;19.066;2022-10-19T03:08:04;15.90;;;11.35;;
60582;SDS011;46415;47.536;19.066;2022-10-19T03:11:06;16.85;;;11.48;;
60582;SDS011;46415;47.536;19.066;2022-10-19T03:14:09;13.07;;;7.95;;
60582;SDS011;46415;47.536;19.066;2022-10-19T03:17:12;13.43;;;9.88;;
60582;SDS011;46415;47.536;19.066;2022-10-19T03:20:15;12.35;;;9.90;;
60582;SDS011;46415;47.536;19.066;2022-10-19T03:23:17;14.98;;;11.23;;
60582;SDS011;46415;47.536;19.066;2022-10-19T03:26:20;14.68;;;10.93;;
60582;SDS011;46415;47.536;19.066;2022-10-19T03:29:22;12.73;;;7.85;;
60582;SDS011;46415;47.536;19.066;2022-10-19T03:32:25;13.57;;;11.18;;
60582;SDS011;46415;47.536;19.066;2022-10-19T03:35:27;12.93;;;10.55;;
60582;SDS011;46415;47.536;19.066;2022-10-19T03:38:30;12.35;;;8.20;;
60582;SDS011;46415;47.536;19.066;2022-10-19T03:41:34;14.73;;;9.63;;
60582;SDS011;46415;47.536;19.066;2022-10-19T03:44:37;15.55;;;11.15;;
60582;SDS011;46415;47.536;19.066;2022-10-19T03:47:40;13.35;;;9.20;;
60582;SDS011;46415;47.536;19.066;2022-10-19T03:50:56;15.48;;;10.82;;
60582;SDS011;46415;47.536;19.066;2022-10-19T03:54:03;12.27;;;8.40;;
60582;SDS011;46415;47.536;19.066;2022-10-19T03:57:08;13.20;;;10.32;;
60582;SDS011;46415;47.536;19.066;2022-10-19T04:00:11;11.12;;;8.63;;
60582;SDS011;46415;47.536;19.066;2022-10-19T04:03:14;14.02;;;10.38;;
60582;SDS011;46415;47.536;19.066;2022-10-19T04:06:17;10.65;;;6.28;;
60582;SDS011;46415;47.536;19.066;2022-10-19T04:09:23;13.10;;;9.27;;
60582;SDS011;46415;47.536;19.066;2022-10-19T04:12:26;13.25;;;9.63;;
60582;SDS011;46415;47.536;19.066;2022-10-19T04:15:28;12.32;;;8.35;;
60582;SDS011;46415;47.536;19.066;2022-10-19T04:18:31;12.95;;;10.18;;
60582;SDS011;46415;47.536;19.066;2022-10-19T04:21:34;8.63;;;6.18;;
60582;SDS011;46415;47.536;19.066;2022-10-19T04:24:39;14.82;;;10.50;;
60582;SDS011;46415;47.536;19.066;2022-10-19T04:27:41;14.55;;;10.73;;
60582;SDS011;46415;47.536;19.066;2022-10-19T04:30:44;11.73;;;8.60;;
60582;SDS011;46415;47.536;19.066;2022-10-19T04:33:46;10.93;;;8.45;;
60582;SDS011;46415;47.536;19.066;2022-10-19T04:36:49;10.20;;;7.40;;
60582;SDS011;46415;47.536;19.066;2022-10-19T04:39:51;13.43;;;8.60;;
60582;SDS011;46415;47.536;19.066;2022-10-19T04:42:54;11.43;;;8.20;;
60582;SDS011;46415;47.536;19.066;2022-10-19T04:46:00;11.18;;;7.68;;
60582;SDS011;46415;47.536;19.066;2022-10-19T04:49:04;15.03;;;10.70;;
60582;SDS011;46415;47.536;19.066;2022-10-19T04:52:08;9.32;;;6.43;;
60582;SDS011;46415;47.536;19.066;2022-10-19T04:55:10;14.25;;;9.07;;
60582;SDS011;46415;47.536;19.066;2022-10-19T04:58:13;10.20;;;7.85;;
60582;SDS011;46415;47.536;19.066;2022-10-19T05:01:19;9.23;;;6.82;;
60582;SDS011;46415;47.536;19.066;2022-10-19T05:04:23;13.65;;;8.88;;
60582;SDS011;46415;47.536;19.066;2022-10-19T05:07:25;11.88;;;8.50;;
60582;SDS011;46415;47.536;19.066;2022-10-19T05:10:28;11.12;;;7.97;;
60582;SDS011;46415;47.536;19.066;2022-10-19T05:13:31;9.23;;;7.93;;
60582;SDS011;46415;47.536;19.066;2022-10-19T05:16:34;9.73;;;7.47;;
60582;SDS011;46415;47.536;19.066;2022-10-19T05:19:37;15.07;;;7.10;;
60582;SDS011;46415;47.536;19.066;2022-10-19T05:22:40;12.63;;;8.02;;
60582;SDS011;46415;47.536;19.066;2022-10-19T05:25:43;14.77;;;8.52;;
60582;SDS011;46415;47.536;19.066;2022-10-19T05:28:46;13.80;;;8.32;;
60582;SDS011;46415;47.536;19.066;2022-10-19T05:31:50;9.75;;;7.70;;
60582;SDS011;46415;47.536;19.066;2022-10-19T05:34:53;15.43;;;8.73;;
60582;SDS011;46415;47.536;19.066;2022-10-19T05:37:56;12.95;;;8.25;;
60582;SDS011;46415;47.536;19.066;2022-10-19T05:40:59;16.08;;;9.30;;
60582;SDS011;46415;47.536;19.066;2022-10-19T05:44:02;12.48;;;7.25;;
60582;SDS011;46415;47.536;19.066;2022-10-19T05:47:06;11.77;;;8.85;;
60582;SDS011;46415;47.536;19.066;2022-10-19T05:50:09;11.12;;;7.72;;
60582;SDS011;46415;47.536;19.066;2022-10-19T05:53:11;11.90;;;8.77;;
60582;SDS011;46415;47.536;19.066;2022-10-19T05:56:18;8.48;;;7.18;;
60582;SDS011;46415;47.536;19.066;2022-10-19T05:59:22;11.60;;;6.93;;
60582;SDS011;46415;47.536;19.066;2022-10-19T06:02:26;10.38;;;6.78;;
60582;SDS011;46415;47.536;19.066;2022-10-19T06:05:28;12.23;;;7.25;;
60582;SDS011;46415;47.536;19.066;2022-10-19T06:08:31;14.27;;;9.98;;
60582;SDS011;46415;47.536;19.066;2022-10-19T06:11:36;12.90;;;9.60;;
60582;SDS011;46415;47.536;19.066;2022-10-19T06:14:40;10.25;;;7.50;;
60582;SDS011;46415;47.536;19.066;2022-10-19T06:17:44;9.68;;;6.32;;
60582;SDS011;46415;47.536;19.066;2022-10-19T06:20:48;9.80;;;7.53;;
60582;SDS011;46415;47.536;19.066;2022-10-19T06:23:55;12.75;;;8.40;;
60582;SDS011;46415;47.536;19.066;2022-10-19T06:27:03;11.60;;;7.87;;
60582;SDS011;46415;47.536;19.066;2022-10-19T06:30:08;14.77;;;8.02;;
60582;SDS011;46415;47.536;19.066;2022-10-19T06:33:11;8.55;;;6.28;;
60582;SDS011;46415;47.536;19.066;2022-10-19T06:36:18;12.48;;;6.93;;
60582;SDS011;46415;47.536;19.066;2022-10-19T06:39:22;12.70;;;9.13;;
60582;SDS011;46415;47.536;19.066;2022-10-19T06:42:25;10.00;;;7.20;;
60582;SDS011;46415;47.536;19.066;2022-10-19T06:45:28;11.63;;;8.10;;
60582;SDS011;46415;47.536;19.066;2022-10-19T06:48:37;10.00;;;6.97;;
60582;SDS011;46415;47.536;19.066;2022-10-19T06:51:39;13.10;;;7.87;;
60582;SDS011;46415;47.536;19.066;2022-10-19T06:54:42;13.13;;;8.38;;
60582;SDS011;46415;47.536;19.066;2022-10-19T06:57:45;11.45;;;8.73;;
60582;SDS011;46415;47.536;19.066;2022-10-19T07:00:53;10.13;;;8.18;;
60582;SDS011;46415;47.536;19.066;2022-10-19T07:03:59;10.77;;;8.02;;
60582;SDS011;46415;47.536;19.066;2022-10-19T07:07:02;11.15;;;8.00;;
60582;SDS011;46415;47.536;19.066;2022-10-19T07:10:06;11.23;;;8.20;;
60582;SDS011;46415;47.536;19.066;2022-10-19T07:13:10;10.05;;;7.53;;
60582;SDS011;46415;47.536;19.066;2022-10-19T07:16:13;10.20;;;8.30;;
60582;SDS011;46415;47.536;19.066;2022-10-19T07:19:26;10.40;;;8.10;;
60582;SDS011;46415;47.536;19.066;2022-10-19T07:22:28;12.07;;;8.30;;
60582;SDS011;46415;47.536;19.066;2022-10-19T07:25:31;11.45;;;9.40;;
60582;SDS011;46415;47.536;19.066;2022-10-19T07:28:34;9.18;;;8.23;;
60582;SDS011;46415;47.536;19.066;2022-10-19T07:31:37;10.70;;;8.50;;
60582;SDS011;46415;47.536;19.066;2022-10-19T07:34:39;10.32;;;8.82;;
60582;SDS011;46415;47.536;19.066;2022-10-19T07:37:42;10.38;;;8.70;;
60582;SDS011;46415;47.536;19.066;2022-10-19T07:40:47;11.32;;;8.32;;
60582;SDS011;46415;47.536;19.066;2022-10-19T07:43:49;11.20;;;8.45;;
60582;SDS011;46415;47.536;19.066;2022-10-19T07:46:53;12.02;;;8.10;;
60582;SDS011;46415;47.536;19.066;2022-10-19T07:49:55;9.82;;;7.50;;
60582;SDS011;46415;47.536;19.066;2022-10-19T07:52:58;8.90;;;7.68;;
60582;SDS011;46415;47.536;19.066;2022-10-19T07:56:01;8.55;;;7.60;;
60582;SDS011;46415;47.536;19.066;2022-10-19T07:59:10;9.90;;;7.97;;
60582;SDS011;46415;47.536;19.066;2022-10-19T08:02:16;9.38;;;7.87;;
60582;SDS011;46415;47.536;19.066;2022-10-19T08:05:19;9.98;;;7.60;;
60582;SDS011;46415;47.536;19.066;2022-10-19T08:08:22;11.35;;;7.75;;
60582;SDS011;46415;47.536;19.066;2022-10-19T08:11:27;8.18;;;6.90;;
60582;SDS011;46415;47.536;19.066;2022-10-19T08:14:31;10.98;;;7.65;;
60582;SDS011;46415;47.536;19.066;2022-10-19T08:17:35;10.73;;;7.00;;
60582;SDS011;46415;47.536;19.066;2022-10-19T08:20:44;8.18;;;7.12;;
60582;SDS011;46415;47.536;19.066;2022-10-19T08:23:47;9.40;;;6.65;;
60582;SDS011;46415;47.536;19.066;2022-10-19T08:26:50;7.05;;;6.35;;
60582;SDS011;46415;47.536;19.066;2022-10-19T08:29:53;8.18;;;6.05;;
60582;SDS011;46415;47.536;19.066;2022-10-19T08:32:56;6.95;;;6.30;;
60582;SDS011;46415;47.536;19.066;2022-10-19T08:35:58;6.97;;;6.20;;
60582;SDS011;46415;47.536;19.066;2022-10-19T08:39:02;6.78;;;6.03;;
60582;SDS011;46415;47.536;19.066;2022-10-19T08:42:12;7.43;;;6.40;;
60582;SDS011;46415;47.536;19.066;2022-10-19T08:45:29;7.20;;;6.05;;
60582;SDS011;46415;47.536;19.066;2022-10-19T08:48:44;6.97;;;6.28;;
60582;SDS011;46415;47.536;19.066;2022-10-19T08:51:48;6.93;;;6.25;;
60582;SDS011;46415;47.536;19.066;2022-10-19T08:58:18;6.47;;;5.75;;
60582;SDS011;46415;47.536;19.066;2022-10-19T09:01:51;6.78;;;5.20;;
60582;SDS011;46415;47.536;19.066;2022-10-19T09:04:59;5.25;;;4.75;;
60582;SDS011;46415;47.536;19.066;2022-10-19T09:08:07;5.53;;;4.95;;
60582;SDS011;46415;47.536;19.066;2022-10-19T09:11:23;4.47;;;3.85;;
60582;SDS011;46415;47.536;19.066;2022-10-19T09:14:30;4.65;;;4.25;;
60582;SDS011;46415;47.536;19.066;2022-10-19T09:17:39;3.78;;;3.05;;
60582;SDS011;46415;47.536;19.066;2022-10-19T09:20:45;4.60;;;3.03;;
60582;SDS011;46415;47.536;19.066;2022-10-19T09:23:52;4.25;;;3.50;;
60582;SDS011;46415;47.536;19.066;2022-10-19T09:27:00;3.40;;;3.10;;
60582;SDS011;46415;47.536;19.066;2022-10-19T09:30:04;4.00;;;2.72;;
60582;SDS011;46415;47.536;19.066;2022-10-19T09:33:18;3.80;;;3.20;;
60582;SDS011;46415;47.536;19.066;2022-10-19T09:36:30;2.92;;;2.72;;
60582;SDS011;46415;47.536;19.066;2022-10-19T09:39:52;2.70;;;2.50;;
60582;SDS011;46415;47.536;19.066;2022-10-19T09:42:57;2.55;;;2.35;;
60582;SDS011;46415;47.536;19.066;2022-10-19T09:46:05;2.90;;;2.70;;
60582;SDS011;46415;47.536;19.066;2022-10-19T09:50:04;3.58;;;3.03;;
60582;SDS011;46415;47.536;19.066;2022-10-19T09:52:52;2.95;;;2.75;;
60582;SDS011;46415;47.536;19.066;2022-10-19T09:59:10;3.42;;;3.08;;
60582;SDS011;46415;47.536;19.066;2022-10-19T10:02:30;4.43;;;3.35;;
60582;SDS011;46415;47.536;19.066;2022-10-19T10:05:35;3.40;;;3.10;;
60582;SDS011;46415;47.536;19.066;2022-10-19T10:08:44;3.45;;;3.10;;
60582;SDS011;46415;47.536;19.066;2022-10-19T10:11:56;3.40;;;3.15;;
60582;SDS011;46415;47.536;19.066;2022-10-19T10:15:02;2.85;;;2.65;;
60582;SDS011;46415;47.536;19.066;2022-10-19T10:18:14;3.25;;;2.95;;
60582;SDS011;46415;47.536;19.066;2022-10-19T10:21:24;3.30;;;2.75;;
60582;SDS011;46415;47.536;19.066;2022-10-19T10:24:32;3.25;;;3.05;;
60582;SDS011;46415;47.536;19.066;2022-10-19T10:27:36;3.30;;;3.00;;
60582;SDS011;46415;47.536;19.066;2022-10-19T10:30:40;3.20;;;2.95;;
60582;SDS011;46415;47.536;19.066;2022-10-19T10:33:51;2.72;;;2.40;;
60582;SDS011;46415;47.536;19.066;2022-10-19T10:37:32;1.80;;;1.60;;
60582;SDS011;46415;47.536;19.066;2022-10-19T10:40:37;1.48;;;1.37;;
60582;SDS011;46415;47.536;19.066;2022-10-19T10:43:48;1.52;;;1.30;;
60582;SDS011;46415;47.536;19.066;2022-10-19T10:46:58;1.40;;;1.30;;
60582;SDS011;46415;47.536;19.066;2022-10-19T10:50:03;1.42;;;1.30;;
60582;SDS011;46415;47.536;19.066;2022-10-19T10:53:27;1.98;;;1.77;;
60582;SDS011;46415;47.536;19.066;2022-10-19T10:56:30;2.60;;;1.92;;
60582;SDS011;46415;47.536;19.066;2022-10-19T10:59:36;1.95;;;1.85;;
60582;SDS011;46415;47.536;19.066;2022-10-19T11:03:30;2.05;;;1.90;;
60582;SDS011;46415;47.536;19.066;2022-10-19T11:06:25;3.22;;;1.98;;
60582;SDS011;46415;47.536;19.066;2022-10-19T11:09:30;1.95;;;1.75;;
60582;SDS011;46415;47.536;19.066;2022-10-19T11:12:38;2.53;;;1.60;;
60582;SDS011;46415;47.536;19.066;2022-10-19T11:15:53;1.65;;;1.55;;
60582;SDS011;46415;47.536;19.066;2022-10-19T11:19:23;3.45;;;1.45;;
60582;SDS011;46415;47.536;19.066;2022-10-19T11:22:27;1.67;;;1.25;;
60582;SDS011;46415;47.536;19.066;2022-10-19T11:52:11;1.50;;;1.40;;
60582;SDS011;46415;47.536;19.066;2022-10-19T11:55:32;1.67;;;1.55;;
60582;SDS011;46415;47.536;19.066;2022-10-19T11:58:58;1.67;;;1.30;;
60582;SDS011;46415;47.536;19.066;2022-10-19T12:02:39;1.95;;;1.30;;
60582;SDS011;46415;47.536;19.066;2022-10-19T12:09:53;1.60;;;1.50;;
60582;SDS011;46415;47.536;19.066;2022-10-19T12:12:39;6.62;;;1.58;;
60582;SDS011;46415;47.536;19.066;2022-10-19T12:15:47;1.42;;;1.33;;
60582;SDS011;46415;47.536;19.066;2022-10-19T12:18:56;1.08;;;1.02;;
60582;SDS011;46415;47.536;19.066;2022-10-19T12:22:03;1.92;;;1.05;;
60582;SDS011;46415;47.536;19.066;2022-10-19T12:25:10;2.03;;;1.10;;
60582;SDS011;46415;47.536;19.066;2022-10-19T12:28:23;2.22;;;1.50;;
60582;SDS011;46415;47.536;19.066;2022-10-19T12:31:32;1.20;;;1.10;;
60582;SDS011;46415;47.536;19.066;2022-10-19T12:34:47;1.10;;;1.10;;
60582;SDS011;46415;47.536;19.066;2022-10-19T12:37:59;1.40;;;1.20;;
60582;SDS011;46415;47.536;19.066;2022-10-19T12:51:29;1.70;;;1.60;;
60582;SDS011;46415;47.536;19.066;2022-10-19T12:54:46;1.45;;;1.40;;
60582;SDS011;46415;47.536;19.066;2022-10-19T12:57:55;1.60;;;1.40;;
60582;SDS011;46415;47.536;19.066;2022-10-19T13:01:26;1.77;;;1.60;;
60582;SDS011;46415;47.536;19.066;2022-10-19T13:04:49;1.62;;;1.50;;
60582;SDS011;46415;47.536;19.066;2022-10-19T13:07:55;1.65;;;1.55;;
60582;SDS011;46415;47.536;19.066;2022-10-19T13:11:02;1.85;;;1.75;;
60582;SDS011;46415;47.536;19.066;2022-10-19T13:23:54;1.70;;;1.60;;
60582;SDS011;46415;47.536;19.066;2022-10-19T13:27:37;1.62;;;1.52;;
60582;SDS011;46415;47.536;19.066;2022-10-19T13:33:47;4.35;;;1.65;;
60582;SDS011;46415;47.536;19.066;2022-10-19T13:36:58;2.17;;;1.77;;
60582;SDS011;46415;47.536;19.066;2022-10-19T13:40:04;1.70;;;1.60;;
60582;SDS011;46415;47.536;19.066;2022-10-19T13:43:27;2.00;;;1.90;;
60582;SDS011;46415;47.536;19.066;2022-10-19T13:46:53;2.37;;;1.90;;
60582;SDS011;46415;47.536;19.066;2022-10-19T13:50:10;2.28;;;2.10;;
60582;SDS011;46415;47.536;19.066;2022-10-19T14:03:27;2.40;;;2.20;;
60582;SDS011;46415;47.536;19.066;2022-10-19T14:06:42;2.83;;;2.60;;
60582;SDS011;46415;47.536;19.066;2022-10-19T14:13:12;3.03;;;2.08;;
60582;SDS011;46415;47.536;19.066;2022-10-19T14:16:17;2.55;;;2.35;;
60582;SDS011;46415;47.536;19.066;2022-10-19T14:22:32;4.40;;;2.55;;
60582;SDS011;46415;47.536;19.066;2022-10-19T14:25:35;3.05;;;2.50;;
60582;SDS011;46415;47.536;19.066;2022-10-19T14:28:38;3.83;;;2.75;;
60582;SDS011;46415;47.536;19.066;2022-10-19T14:31:42;4.65;;;2.40;;
60582;SDS011;46415;47.536;19.066;2022-10-19T14:34:45;3.33;;;2.50;;
60582;SDS011;46415;47.536;19.066;2022-10-19T14:37:49;2.80;;;2.37;;
60582;SDS011;46415;47.536;19.066;2022-10-19T14:40:53;3.95;;;2.30;;
60582;SDS011;46415;47.536;19.066;2022-10-19T14:43:58;2.78;;;2.20;;
60582;SDS011;46415;47.536;19.066;2022-10-19T14:47:05;2.42;;;2.22;;
60582;SDS011;46415;47.536;19.066;2022-10-19T14:50:18;2.40;;;2.20;;
60582;SDS011;46415;47.536;19.066;2022-10-19T14:53:35;2.60;;;2.40;;
60582;SDS011;46415;47.536;19.066;2022-10-19T15:00:16;2.28;;;2.17;;
60582;SDS011;46415;47.536;19.066;2022-10-19T15:03:23;3.45;;;2.20;;
60582;SDS011;46415;47.536;19.066;2022-10-19T15:06:29;2.20;;;2.00;;
60582;SDS011;46415;47.536;19.066;2022-10-19T15:09:37;2.97;;;2.30;;
60582;SDS011;46415;47.536;19.066;2022-10-19T15:12:49;2.70;;;2.33;;
60582;SDS011;46415;47.536;19.066;2022-10-19T15:15:54;2.28;;;2.08;;
60582;SDS011;46415;47.536;19.066;2022-10-19T15:19:00;2.55;;;2.35;;
60582;SDS011;46415;47.536;19.066;2022-10-19T15:25:25;2.83;;;2.42;;
60582;SDS011;46415;47.536;19.066;2022-10-19T15:28:36;2.50;;;2.30;;
60582;SDS011;46415;47.536;19.066;2022-10-19T15:31:42;2.65;;;2.40;;
60582;SDS011;46415;47.536;19.066;2022-10-19T15:34:45;2.60;;;2.40;;
60582;SDS011;46415;47.536;19.066;2022-10-19T15:37:48;4.28;;;2.67;;
60582;SDS011;46415;47.536;19.066;2022-10-19T15:40:55;3.97;;;2.30;;
60582;SDS011;46415;47.536;19.066;2022-10-19T15:44:00;3.10;;;2.80;;
60582;SDS011;46415;47.536;19.066;2022-10-19T15:50:29;2.95;;;2.33;;
60582;SDS011;46415;47.536;19.066;2022-10-19T15:53:37;2.50;;;2.30;;
60582;SDS011;46415;47.536;19.066;2022-10-19T15:56:40;2.75;;;2.55;;
60582;SDS011;46415;47.536;19.066;2022-10-19T15:59:43;3.10;;;2.75;;
60582;SDS011;46415;47.536;19.066;2022-10-19T16:02:45;2.83;;;2.50;;
60582;SDS011;46415;47.536;19.066;2022-10-19T16:05:48;2.67;;;2.47;;
60582;SDS011;46415;47.536;19.066;2022-10-19T16:08:51;3.00;;;2.62;;
60582;SDS011;46415;47.536;19.066;2022-10-19T16:11:55;3.95;;;2.25;;
60582;SDS011;46415;47.536;19.066;2022-10-19T16:14:59;2.60;;;2.40;;
60582;SDS011;46415;47.536;19.066;2022-10-19T16:18:02;2.12;;;1.90;;
60582;SDS011;46415;47.536;19.066;2022-10-19T16:21:05;5.12;;;2.37;;
60582;SDS011;46415;47.536;19.066;2022-10-19T16:24:08;3.58;;;2.72;;
60582;SDS011;46415;47.536;19.066;2022-10-19T16:27:11;2.87;;;2.03;;
60582;SDS011;46415;47.536;19.066;2022-10-19T16:30:18;2.22;;;2.03;;
60582;SDS011;46415;47.536;19.066;2022-10-19T16:33:21;4.03;;;2.80;;
60582;SDS011;46415;47.536;19.066;2022-10-19T16:36:24;2.85;;;2.42;;
60582;SDS011;46415;47.536;19.066;2022-10-19T16:39:28;2.78;;;2.28;;
60582;SDS011;46415;47.536;19.066;2022-10-19T16:42:31;3.22;;;1.62;;
60582;SDS011;46415;47.536;19.066;2022-10-19T16:45:34;3.78;;;2.58;;
60582;SDS011;46415;47.536;19.066;2022-10-19T16:48:37;3.15;;;2.85;;
60582;SDS011;46415;47.536;19.066;2022-10-19T16:51:40;1.67;;;1.58;;
60582;SDS011;46415;47.536;19.066;2022-10-19T16:54:46;3.45;;;2.95;;
60582;SDS011;46415;47.536;19.066;2022-10-19T16:57:49;2.58;;;1.80;;
60582;SDS011;46415;47.536;19.066;2022-10-19T17:00:54;2.17;;;2.03;;
60582;SDS011;46415;47.536;19.066;2022-10-19T17:03:58;3.10;;;2.78;;
60582;SDS011;46415;47.536;19.066;2022-10-19T17:07:02;5.10;;;3.00;;
60582;SDS011;46415;47.536;19.066;2022-10-19T17:10:05;3.47;;;2.00;;
60582;SDS011;46415;47.536;19.066;2022-10-19T17:13:09;1.62;;;1.52;;
60582;SDS011;46415;47.536;19.066;2022-10-19T17:16:12;3.10;;;2.80;;
60582;SDS011;46415;47.536;19.066;2022-10-19T17:19:16;2.22;;;2.03;;
60582;SDS011;46415;47.536;19.066;2022-10-19T17:22:19;3.33;;;2.80;;
60582;SDS011;46415;47.536;19.066;2022-10-19T17:25:22;3.72;;;2.40;;
60582;SDS011;46415;47.536;19.066;2022-10-19T17:28:27;3.75;;;2.60;;
60582;SDS011;46415;47.536;19.066;2022-10-19T17:31:32;3.42;;;2.62;;
60582;SDS011;46415;47.536;19.066;2022-10-19T17:34:35;3.67;;;2.85;;
60582;SDS011;46415;47.536;19.066;2022-10-19T17:37:38;3.95;;;2.62;;
60582;SDS011;46415;47.536;19.066;2022-10-19T17:40:46;5.15;;;2.30;;
60582;SDS011;46415;47.536;19.066;2022-10-19T17:43:49;2.78;;;2.25;;
60582;SDS011;46415;47.536;19.066;2022-10-19T17:46:55;1.92;;;1.60;;
60582;SDS011;46415;47.536;19.066;2022-10-19T17:49:59;4.32;;;3.50;;
60582;SDS011;46415;47.536;19.066;2022-10-19T17:53:03;2.35;;;2.15;;
60582;SDS011;46415;47.536;19.066;2022-10-19T17:56:06;3.35;;;2.53;;
60582;SDS011;46415;47.536;19.066;2022-10-19T17:59:09;4.35;;;2.83;;
60582;SDS011;46415;47.536;19.066;2022-10-19T18:02:13;3.70;;;2.17;;
60582;SDS011;46415;47.536;19.066;2022-10-19T18:05:16;3.00;;;2.67;;
60582;SDS011;46415;47.536;19.066;2022-10-19T18:08:18;3.15;;;2.85;;
60582;SDS011;46415;47.536;19.066;2022-10-19T18:11:31;2.70;;;2.50;;
60582;SDS011;46415;47.536;19.066;2022-10-19T18:14:39;2.55;;;2.20;;
60582;SDS011;46415;47.536;19.066;2022-10-19T18:17:42;5.57;;;3.12;;
60582;SDS011;46415;47.536;19.066;2022-10-19T18:20:46;4.93;;;2.87;;
60582;SDS011;46415;47.536;19.066;2022-10-19T18:23:50;4.25;;;2.17;;
60582;SDS011;46415;47.536;19.066;2022-10-19T18:26:54;4.78;;;3.03;;
60582;SDS011;46415;47.536;19.066;2022-10-19T18:29:58;2.72;;;2.50;;
60582;SDS011;46415;47.536;19.066;2022-10-19T18:33:00;2.40;;;2.10;;
60582;SDS011;46415;47.536;19.066;2022-10-19T18:36:04;3.12;;;2.50;;
60582;SDS011;46415;47.536;19.066;2022-10-19T18:39:09;4.15;;;2.40;;
60582;SDS011;46415;47.536;19.066;2022-10-19T18:42:14;3.60;;;2.53;;
60582;SDS011;46415;47.536;19.066;2022-10-19T18:45:18;2.10;;;1.98;;
60582;SDS011;46415;47.536;19.066;2022-10-19T18:48:22;2.62;;;2.42;;
60582;SDS011;46415;47.536;19.066;2022-10-19T18:51:27;2.50;;;2.30;;
60582;SDS011;46415;47.536;19.066;2022-10-19T18:54:30;3.37;;;2.97;;
60582;SDS011;46415;47.536;19.066;2022-10-19T18:57:33;7.82;;;2.55;;
60582;SDS011;46415;47.536;19.066;2022-10-19T19:00:37;3.22;;;2.62;;
60582;SDS011;46415;47.536;19.066;2022-10-19T19:03:47;2.20;;;2.00;;
60582;SDS011;46415;47.536;19.066;2022-10-19T19:06:51;3.60;;;2.40;;
60582;SDS011;46415;47.536;19.066;2022-10-19T19:09:55;3.25;;;2.35;;
60582;SDS011;46415;47.536;19.066;2022-10-19T19:12:59;2.58;;;2.37;;
60582;SDS011;46415;47.536;19.066;2022-10-19T19:16:01;3.62;;;2.37;;
60582;SDS011;46415;47.536;19.066;2022-10-19T19:19:05;3.20;;;2.42;;
60582;SDS011;46415;47.536;19.066;2022-10-19T19:22:09;3.17;;;2.35;;
60582;SDS011;46415;47.536;19.066;2022-10-19T19:25:12;3.03;;;2.15;;
60582;SDS011;46415;47.536;19.066;2022-10-19T19:28:14;3.62;;;2.10;;
60582;SDS011;46415;47.536;19.066;2022-10-19T19:31:18;2.65;;;2.42;;
60582;SDS011;46415;47.536;19.066;2022-10-19T19:34:22;2.53;;;2.20;;
60582;SDS011;46415;47.536;19.066;2022-10-19T19:37:25;4.20;;;2.17;;
60582;SDS011;46415;47.536;19.066;2022-10-19T19:40:32;5.10;;;2.07;;
60582;SDS011;46415;47.536;19.066;2022-10-19T19:43:36;2.33;;;2.22;;
60582;SDS011;46415;47.536;19.066;2022-10-19T19:46:40;1.62;;;1.52;;
60582;SDS011;46415;47.536;19.066;2022-10-19T19:49:43;2.37;;;2.17;;
60582;SDS011;46415;47.536;19.066;2022-10-19T19:52:46;4.57;;;2.10;;
60582;SDS011;46415;47.536;19.066;2022-10-19T19:55:50;3.17;;;2.30;;
60582;SDS011;46415;47.536;19.066;2022-10-19T19:58:56;3.20;;;2.22;;
60582;SDS011;46415;47.536;19.066;2022-10-19T20:05:04;1.58;;;1.48;;
60582;SDS011;46415;47.536;19.066;2022-10-19T20:08:07;2.58;;;1.90;;
60582;SDS011;46415;47.536;19.066;2022-10-19T20:11:11;1.40;;;1.30;;
60582;SDS011;46415;47.536;19.066;2022-10-19T20:14:16;1.80;;;1.70;;